Time,TemperatureF,DewpointF,PressureIn,WindDirection,WindDirectionDegrees,WindSpeedMPH,WindSpeedGustMPH,Humidity,HourlyPrecipIn,Conditions,Clouds,dailyrainin,SoftwareType,DateUTC
2013-02-24 00:02:00,-999.0,-99.9,29.41,NE,43,3.0,4.0,-999,-99.99,,,-99.99,,2013-02-24 09:02:00,
2013-02-24 00:11:00,-17.0,-99.9,29.41,NE,56,3.0,3.0,-999,-99.99,,,-99.99,,2013-02-24 09:11:00,
2013-02-24 00:22:00,-999.0,-99.9,29.42,East,88,4.0,4.0,-999,-99.99,,,-99.99,,2013-02-24 09:22:00,
2013-02-24 00:32:00,-999.0,-99.9,29.43,East,98,3.0,4.0,-999,-99.99,,,-99.99,,2013-02-24 09:32:00,
2013-02-24 00:42:00,-16.0,-99.9,29.43,ESE,116,3.0,3.0,-999,-99.99,,,-99.99,,2013-02-24 09:42:00,
2013-02-24 01:01:00,-999.0,-99.9,29.44,North,5,1.0,2.0,-999,-99.99,,,-99.99,,2013-02-24 10:01:00,
2013-02-24 01:11:00,-999.0,-99.9,29.44,NW,323,2.0,3.0,-999,-99.99,,,-99.99,,2013-02-24 10:11:00,
2013-02-24 01:22:00,-999.0,-99.9,29.44,NW,326,3.0,3.0,-999,-99.99,,,-99.99,,2013-02-24 10:22:00,
2013-02-24 01:32:00,-999.0,-99.9,29.44,NE,45,2.0,2.0,-999,-99.99,,,-99.99,,2013-02-24 10:32:00,
2013-02-24 01:42:00,-16.0,-99.9,29.45,North,7,1.0,2.0,-999,-99.99,,,-99.99,,2013-02-24 10:42:00,
2013-02-24 01:52:00,-999.0,-99.9,29.45,North,8,2.0,3.0,-999,-99.99,,,-99.99,,2013-02-24 10:52:00,
2013-02-24 02:01:00,-999.0,-99.9,29.45,NE,51,2.0,2.0,-999,-99.99,,,-99.99,,2013-02-24 11:01:00,
2013-02-24 02:11:00,-18.0,-99.9,29.45,NE,44,2.0,3.0,-999,-99.99,,,-99.99,,2013-02-24 11:11:00,
2013-02-24 02:22:00,-999.0,-99.9,29.45,ENE,58,3.0,4.0,-999,-99.99,,,-99.99,,2013-02-24 11:22:00,
2013-02-24 02:32:00,-999.0,-99.9,29.46,ENE,60,4.0,5.0,-999,-99.99,,,-99.99,,2013-02-24 11:32:00,
2013-02-24 02:42:00,-999.0,-99.9,29.46,ENE,71,4.0,4.0,-999,-99.99,,,-99.99,,2013-02-24 11:42:00,
2013-02-24 02:53:00,-999.0,-99.9,29.46,ENE,68,4.0,4.0,-999,-99.99,,,-99.99,,2013-02-24 11:53:00,
2013-02-24 03:02:00,-999.0,-99.9,29.46,ENE,70,2.0,4.0,-999,-99.99,,,-99.99,,2013-02-24 12:02:00,
2013-02-24 03:11:00,-18.0,-99.9,29.46,ENE,70,2.0,3.0,-999,-99.99,,,-99.99,,2013-02-24 12:11:00,
2013-02-24 03:22:00,-999.0,-99.9,29.47,ENE,72,1.0,2.0,-999,-99.99,,,-99.99,,2013-02-24 12:22:00,
2013-02-24 03:33:00,-999.0,-99.9,29.47,NE,56,3.0,3.0,-999,-99.99,,,-99.99,,2013-02-24 12:33:00,
2013-02-24 03:46:00,-18.0,-99.9,29.47,ENE,60,3.0,4.0,-999,-99.99,,,-99.99,,2013-02-24 12:46:00,
2013-02-24 04:15:00,-999.0,-99.9,29.47,WNW,298,2.0,2.0,-999,-99.99,,,-99.99,,2013-02-24 13:15:00,
2013-02-24 04:27:00,-999.0,-99.9,29.48,NNW,343,2.0,3.0,-999,-99.99,,,-99.99,,2013-02-24 13:27:00,
2013-02-24 04:46:00,-999.0,-99.9,29.49,WNW,296,2.0,2.0,-999,-99.99,,,-99.99,,2013-02-24 13:46:00,
2013-02-24 04:56:00,-17.0,-99.9,29.49,NW,314,2.0,2.0,-999,-99.99,,,-99.99,,2013-02-24 13:56:00,
2013-02-24 05:05:00,-999.0,-99.9,29.49,NNW,347,3.0,3.0,-999,-99.99,,,-99.99,,2013-02-24 14:05:00,
2013-02-24 05:14:00,-17.0,-99.9,29.49,NNE,12,1.0,3.0,-999,-99.99,,,-99.99,,2013-02-24 14:14:00,
2013-02-24 05:45:00,-19.0,-99.9,29.49,ENE,75,1.0,1.0,-999,-99.99,,,-99.99,,2013-02-24 14:45:00,
2013-02-24 06:04:00,-999.0,-99.9,29.49,NNE,17,1.0,1.0,-999,-99.99,,,-99.99,,2013-02-24 15:04:00,
2013-02-24 06:24:00,-999.0,-99.9,29.50,East,86,2.0,2.0,-999,-99.99,,,-99.99,,2013-02-24 15:24:00,
2013-02-24 06:32:00,-999.0,-99.9,29.51,East,92,3.0,4.0,-999,-99.99,,,-99.99,,2013-02-24 15:32:00,
2013-02-24 06:42:00,-19.0,-99.9,29.51,East,93,4.0,4.0,-999,-99.99,,,-99.99,,2013-02-24 15:42:00,
2013-02-24 06:53:00,-999.0,-99.9,29.52,ESE,106,2.0,4.0,-999,-99.99,,,-99.99,,2013-02-24 15:53:00,
2013-02-24 07:02:00,-999.0,-99.9,29.52,NE,36,0.0,1.0,-999,-99.99,,,-99.99,,2013-02-24 16:02:00,
2013-02-24 07:12:00,-19.0,-99.9,29.52,North,359,1.0,2.0,-999,-99.99,,,-99.99,,2013-02-24 16:12:00,
2013-02-24 07:22:00,-999.0,-99.9,29.52,NNE,12,1.0,2.0,-999,-99.99,,,-99.99,,2013-02-24 16:22:00,
2013-02-24 08:11:00,-19.0,-99.9,29.53,East,96,0.0,1.0,-999,-99.99,,,-99.99,,2013-02-24 17:11:00,
2013-02-24 08:22:00,-999.0,-99.9,29.53,ENE,77,3.0,3.0,-999,-99.99,,,-99.99,,2013-02-24 17:22:00,
2013-02-24 08:32:00,-999.0,-99.9,29.54,ESE,105,1.0,2.0,-999,-99.99,,,-99.99,,2013-02-24 17:32:00,
2013-02-24 08:42:00,-19.0,-99.9,29.54,ESE,115,2.0,2.0,-999,-99.99,,,-99.99,,2013-02-24 17:42:00,
2013-02-24 08:53:00,-999.0,-99.9,29.54,East,94,2.0,2.0,-999,-99.99,,,-99.99,,2013-02-24 17:53:00,
2013-02-24 09:02:00,-999.0,-99.9,29.55,SE,126,1.0,2.0,-999,-99.99,,,-99.99,,2013-02-24 18:02:00,
2013-02-24 09:12:00,-20.0,-99.9,29.55,SE,139,-999.0,1.0,-999,-99.99,,,-99.99,,2013-02-24 18:12:00,
2013-02-24 09:32:00,-999.0,-99.9,29.56,NNW,341,2.0,2.0,-999,-99.99,,,-99.99,,2013-02-24 18:32:00,
2013-02-24 09:42:00,-999.0,-99.9,29.57,NE,49,2.0,2.0,-999,-99.99,,,-99.99,,2013-02-24 18:42:00,
2013-02-24 09:52:00,-20.0,-99.9,29.57,ENE,57,3.0,3.0,-999,-99.99,,,-99.99,,2013-02-24 18:52:00,
2013-02-24 10:01:00,-999.0,-99.9,29.57,NE,53,2.0,3.0,-999,-99.99,,,-99.99,,2013-02-24 19:01:00,
2013-02-24 10:12:00,-20.0,-99.9,29.57,NE,46,3.0,3.0,-999,-99.99,,,-99.99,,2013-02-24 19:12:00,
2013-02-24 10:32:00,-999.0,-99.9,29.57,NW,319,2.0,2.0,-999,-99.99,,,-99.99,,2013-02-24 19:32:00,
2013-02-24 10:42:00,-17.0,-99.9,29.58,North,354,2.0,2.0,-999,-99.99,,,-99.99,,2013-02-24 19:42:00,
2013-02-24 10:52:00,-999.0,-99.9,29.58,NNE,25,2.0,2.0,-999,-99.99,,,-99.99,,2013-02-24 19:52:00,
2013-02-24 11:02:00,-999.0,-99.9,29.59,NE,43,1.0,2.0,-999,-99.99,,,-99.99,,2013-02-24 20:02:00,
2013-02-24 11:11:00,-999.0,-99.9,29.59,East,87,3.0,4.0,-999,-99.99,,,-99.99,,2013-02-24 20:11:00,
2013-02-24 11:22:00,-999.0,-99.9,29.59,East,88,2.0,3.0,-999,-99.99,,,-99.99,,2013-02-24 20:22:00,
2013-02-24 11:32:00,-999.0,-99.9,29.60,North,359,0.0,1.0,-999,-99.99,,,-99.99,,2013-02-24 20:32:00,
2013-02-24 11:42:00,-15.0,-99.9,29.60,WNW,301,1.0,1.0,-999,-99.99,,,-99.99,,2013-02-24 20:42:00,
2013-02-24 12:02:00,-999.0,-99.9,29.61,NNE,24,1.0,1.0,-999,-99.99,,,-99.99,,2013-02-24 21:02:00,
2013-02-24 12:11:00,-10.0,-99.9,29.61,NE,44,2.0,2.0,-999,-99.99,,,-99.99,,2013-02-24 21:11:00,
2013-02-24 12:21:00,-999.0,-99.9,29.61,ENE,75,1.0,2.0,-999,-99.99,,,-99.99,,2013-02-24 21:21:00,
2013-02-24 13:11:00,-7.0,-99.9,29.63,North,-999,-999.0,-999.0,-999,-99.99,,,-99.99,,2013-02-24 22:11:00,
2013-02-24 13:32:00,-999.0,-99.9,29.63,West,279,2.0,2.0,-999,-99.99,,,-99.99,,2013-02-24 22:32:00,
2013-02-24 13:42:00,-11.0,-99.9,29.63,West,276,2.0,2.0,-999,-99.99,,,-99.99,,2013-02-24 22:42:00,
2013-02-24 13:52:00,-999.0,-99.9,29.64,WNW,295,2.0,2.0,-999,-99.99,,,-99.99,,2013-02-24 22:52:00,
2013-02-24 14:02:00,-999.0,-99.9,29.64,NW,305,0.0,1.0,-999,-99.99,,,-99.99,,2013-02-24 23:02:00,
2013-02-24 14:42:00,-3.0,-99.9,29.65,SSW,211,-999.0,0.0,-999,-99.99,,,-99.99,,2013-02-24 23:42:00,
2013-02-24 15:11:00,-8.0,-99.9,29.65,SE,138,2.0,3.0,-999,-99.99,,,-99.99,,2013-02-25 00:11:00,
2013-02-24 15:22:00,-999.0,-99.9,29.65,SE,144,2.0,3.0,-999,-99.99,,,-99.99,,2013-02-25 00:22:00,
2013-02-24 15:32:00,-999.0,-99.9,29.65,South,179,1.0,2.0,-999,-99.99,,,-99.99,,2013-02-25 00:32:00,
2013-02-24 15:42:00,-8.0,-99.9,29.65,SSE,158,2.0,2.0,-999,-99.99,,,-99.99,,2013-02-25 00:42:00,
2013-02-24 15:52:00,-999.0,-99.9,29.65,West,266,1.0,1.0,-999,-99.99,,,-99.99,,2013-02-25 00:52:00,
2013-02-24 16:02:00,-999.0,-99.9,29.66,WNW,299,2.0,2.0,-999,-99.99,,,-99.99,,2013-02-25 01:02:00,
2013-02-24 16:21:00,-1.0,-99.9,29.66,ESE,116,-999.0,0.0,-999,-99.99,,,-99.99,,2013-02-25 01:21:00,
2013-02-24 16:42:00,-7.0,-99.9,29.66,ENE,57,-999.0,1.0,-999,-99.99,,,-99.99,,2013-02-25 01:42:00,
2013-02-24 17:01:00,-999.0,-99.9,29.67,East,81,2.0,3.0,-999,-99.99,,,-99.99,,2013-02-25 02:01:00,
2013-02-24 17:11:00,-6.0,-99.9,29.67,ENE,69,2.0,4.0,-999,-99.99,,,-99.99,,2013-02-25 02:11:00,
2013-02-24 17:21:00,-999.0,-99.9,29.67,NE,49,2.0,3.0,-999,-99.99,,,-99.99,,2013-02-25 02:21:00,
2013-02-24 17:32:00,-999.0,-99.9,29.67,ENE,72,1.0,2.0,-999,-99.99,,,-99.99,,2013-02-25 02:32:00,
2013-02-24 17:42:00,-999.0,-99.9,29.67,NW,318,1.0,1.0,-999,-99.99,,,-99.99,,2013-02-25 02:42:00,
2013-02-24 17:52:00,-999.0,-99.9,29.67,WNW,285,2.0,3.0,-999,-99.99,,,-99.99,,2013-02-25 02:52:00,
2013-02-24 18:02:00,-999.0,-99.9,29.68,WNW,289,3.0,3.0,-999,-99.99,,,-99.99,,2013-02-25 03:02:00,
2013-02-24 18:11:00,-9.0,-99.9,29.68,WNW,302,4.0,4.0,-999,-99.99,,,-99.99,,2013-02-25 03:11:00,
2013-02-24 18:21:00,-999.0,-99.9,29.68,NW,325,3.0,4.0,-999,-99.99,,,-99.99,,2013-02-25 03:21:00,
2013-02-24 18:32:00,-999.0,-99.9,29.69,NNW,344,3.0,4.0,-999,-99.99,,,-99.99,,2013-02-25 03:32:00,
2013-02-24 18:42:00,-8.0,-99.9,29.68,NNW,348,3.0,3.0,-999,-99.99,,,-99.99,,2013-02-25 03:42:00,
2013-02-24 18:52:00,-999.0,-99.9,29.68,NNW,347,3.0,4.0,-999,-99.99,,,-99.99,,2013-02-25 03:52:00,
2013-02-24 19:02:00,-999.0,-99.9,29.69,NNW,335,2.0,2.0,-999,-99.99,,,-99.99,,2013-02-25 04:02:00,
2013-02-24 19:11:00,-999.0,-99.9,29.69,NNW,327,2.0,2.0,-999,-99.99,,,-99.99,,2013-02-25 04:11:00,
2013-02-24 19:22:00,-999.0,-99.9,29.69,NNW,335,2.0,3.0,-999,-99.99,,,-99.99,,2013-02-25 04:22:00,
2013-02-24 19:32:00,-999.0,-99.9,29.70,NNW,339,2.0,2.0,-999,-99.99,,,-99.99,,2013-02-25 04:32:00,
2013-02-24 19:42:00,-11.0,-99.9,29.70,North,354,3.0,3.0,-999,-99.99,,,-99.99,,2013-02-25 04:42:00,
2013-02-24 19:52:00,-999.0,-99.9,29.70,NNE,21,2.0,3.0,-999,-99.99,,,-99.99,,2013-02-25 04:52:00,
2013-02-24 20:01:00,-999.0,-99.9,29.70,NE,41,2.0,2.0,-999,-99.99,,,-99.99,,2013-02-25 05:01:00,
2013-02-24 20:11:00,-13.0,-99.9,29.70,NE,37,2.0,3.0,-999,-99.99,,,-99.99,,2013-02-25 05:11:00,
2013-02-24 20:22:00,-999.0,-99.9,29.70,NNE,18,2.0,3.0,-999,-99.99,,,-99.99,,2013-02-25 05:22:00,
2013-02-24 20:32:00,-999.0,-99.9,29.71,NNE,21,2.0,3.0,-999,-99.99,,,-99.99,,2013-02-25 05:32:00,
2013-02-24 20:42:00,-14.0,-99.9,29.71,NNE,29,2.0,3.0,-999,-99.99,,,-99.99,,2013-02-25 05:42:00,
2013-02-24 20:52:00,-999.0,-99.9,29.71,North,8,1.0,2.0,-999,-99.99,,,-99.99,,2013-02-25 05:52:00,
2013-02-24 21:03:00,-999.0,-99.9,29.71,North,353,3.0,3.0,-999,-99.99,,,-99.99,,2013-02-25 06:03:00,
2013-02-24 21:12:00,-15.0,-99.9,29.71,NNW,342,3.0,3.0,-999,-99.99,,,-99.99,,2013-02-25 06:12:00,
2013-02-24 21:21:00,-999.0,-99.9,29.72,NNW,341,3.0,4.0,-999,-99.99,,,-99.99,,2013-02-25 06:21:00,
2013-02-24 21:32:00,-999.0,-99.9,29.72,NNW,339,4.0,4.0,-999,-99.99,,,-99.99,,2013-02-25 06:32:00,
2013-02-24 21:42:00,-17.0,-99.9,29.72,NNW,346,3.0,4.0,-999,-99.99,,,-99.99,,2013-02-25 06:42:00,
2013-02-24 21:52:00,-999.0,-99.9,29.72,NNE,27,1.0,3.0,-999,-99.99,,,-99.99,,2013-02-25 06:52:00,
2013-02-24 22:01:00,-999.0,-99.9,29.73,North,1,3.0,4.0,-999,-99.99,,,-99.99,,2013-02-25 07:01:00,
2013-02-24 22:11:00,-18.0,-99.9,29.73,North,353,2.0,4.0,-999,-99.99,,,-99.99,,2013-02-25 07:11:00,
2013-02-24 22:21:00,-999.0,-99.9,29.73,NNE,23,0.0,2.0,-999,-99.99,,,-99.99,,2013-02-25 07:21:00,
2013-02-24 22:32:00,-999.0,-99.9,29.73,NNW,334,3.0,4.0,-999,-99.99,,,-99.99,,2013-02-25 07:32:00,
2013-02-24 22:42:00,-999.0,-99.9,29.74,NE,43,1.0,2.0,-999,-99.99,,,-99.99,,2013-02-25 07:42:00,
2013-02-24 22:52:00,-18.0,-99.9,29.74,NE,42,0.0,1.0,-999,-99.99,,,-99.99,,2013-02-25 07:52:00,
2013-02-24 23:01:00,-999.0,-99.9,29.74,NNE,33,2.0,2.0,-999,-99.99,,,-99.99,,2013-02-25 08:01:00,
2013-02-24 23:11:00,-19.0,-99.9,29.74,SW,233,2.0,4.0,-999,-99.99,,,-99.99,,2013-02-25 08:11:00,
2013-02-24 23:22:00,-999.0,-99.9,29.74,WNW,282,4.0,5.0,-999,-99.99,,,-99.99,,2013-02-25 08:22:00,
2013-02-24 23:32:00,-999.0,-99.9,29.75,NW,323,2.0,3.0,-999,-99.99,,,-99.99,,2013-02-25 08:32:00,
2013-02-24 23:42:00,-20.0,-99.9,29.75,NE,38,1.0,2.0,-999,-99.99,,,-99.99,,2013-02-25 08:42:00,
2013-02-24 23:52:00,-999.0,-99.9,29.75,WSW,241,2.0,3.0,-999,-99.99,,,-99.99,,2013-02-25 08:52:00,